Federico Ramos

Recruteur en chef - Agropecuario Argentino
20 Févr 2028
Dimanche
Processus

Personnalité

Adaptabilité (17) Ambition (15) Controverse (12) Loyauté (20) Pression (6) Professionnalisme (19) Sportivité (19) Tempérament (9)

Profil

Style d'entraînement Démocratique
Diplôme Continental Pro
Détermination 3
Gestion des joueurs 5
Motivation 6
Discipline 6
Satisfaction professionnelle
100%
Fatigue
0%
Rôle Recruteur en chef
Salaire 21.0K p/s
Contrat 14.03.2030

Performance

Comportement Bon
Efficacité de l'entraînement
23%
Développement des joueurs
20%
Prévention des blessures
35%
Mise en place tactique
30%

Événements récents

A évalué un joueur maintenant
A participé à une réunion de recrutement maintenant
A évalué un joueur maintenant
A évalué un joueur 7j
A évalué un joueur 7j
A évalué un joueur 7j
A évalué un joueur 7j
A évalué un joueur 7j

Suivi en cours

296
Joueur Club Statut Capacité Confiance Observé Dernière observation Dernier vote
Julian Brandes Juventud Actif 105 / 105 40% 3 19.02.2028 -
Camilo Machado Madryn Actif 104 / 120 40% 1 19.02.2028 -
Santiago Vergara Minnesota United FC Actif 89 / 96 40% 1 19.02.2028 -
Santiago Kubiszyn Morón Actif 119 / 120 40% 4 17.02.2028 -
Kevin Campillay Antofagasta Actif 94 / 89 40% 1 17.02.2028 -
Derlis Aguilera General Caballero Actif 87 / 86 40% 1 17.02.2028 -
Federico Versaci Talleres Actif 119 / 101 40% 2 16.02.2028 -
Emiliano Aires Rampla Juniors Actif 105 / 98 40% 2 16.02.2028 -
Carlos Sarabia Deportivo Pasto Actif 95 / 111 40% 1 16.02.2028 -
Cristián Pardo Universidad de Chile Actif 94 / 97 40% 1 14.02.2028 -
Maicol Rodríguez Juventud Actif 87 / 97 40% 1 14.02.2028 -
Jarol Heritier Universidad de Concepcion Actif 88 / 92 40% 1 14.02.2028 -
Ulises Sánchez Gimnasia y Esgrima Actif 115 / 126 40% 3 12.02.2028 -
Luca Bastilla Nautico Actif 98 / 104 40% 1 12.02.2028 -
Breinner Román Real Santander Actif 81 / 93 40% 1 12.02.2028 -
Diego Rosa Fenix Actif 97 / 101 40% 2 11.02.2028 -
Luis Sánchez Chiapas Actif 77 / 93 40% 2 11.02.2028 -
César Doy Melgar Actif 86 / 100 40% 1 11.02.2028 -
Simón Contreras Iquique Actif 107 / 99 40% 3 10.02.2028 -
Yodilan Cruz Cobresal Actif 82 / 78 40% 1 09.02.2028 -
Lucas Camejo River Plate Actif 84 / 95 40% 1 09.02.2028 -
Mauricio Lacerda Miramar Misiones Actif 86 / 86 40% 2 08.02.2028 -
Román Gutiérrez River Plate Actif 85 / 88 40% 2 08.02.2028 -
Adrián Campos Atlanta United FC Actif 102 / 74 40% 1 08.02.2028 -
Pablo Viudez Rentistas Actif 107 / 109 40% 2 07.02.2028 -
Ian López Tacuarembo Actif 94 / 89 40% 2 07.02.2028 -
Diego Vargas San Marcos de Arica Actif 93 / 106 40% 1 07.02.2028 -
Lucas Carrizo Plaza Colonia Actif 118 / 116 40% 3 06.02.2028 -
Cristian González Cerrito Actif 94 / 101 40% 2 06.02.2028 -
Rodrigo Marín Cerro Actif 96 / 92 40% 1 06.02.2028 -
Cristián Riquelme Colo-Colo Actif 98 / 114 40% 2 05.02.2028 -
Gonzalo de Mello Liverpool Montevideo Actif 104 / 111 40% 1 05.02.2028 -
Paul Ortíz Miramar Misiones Actif 78 / 82 40% 1 05.02.2028 -
Tomás Olase Defensor Sporting Actif 100 / 105 40% 3 04.02.2028 -
Oliver Larraz Vancouver Whitecaps Actif 102 / 94 40% 1 04.02.2028 -
Amaury García Cruz Azul Actif 110 / 90 40% 1 04.02.2028 -
Agustín Pérez Juventud Actif 86 / 103 40% 1 03.02.2028 -
Diego Ulloa Colo-Colo Actif 103 / 110 40% 2 02.02.2028 -
Diego Méndez Tacuarembo Actif 96 / 93 40% 1 02.02.2028 -
Tiago Banega Gimnasia y Tiro Actif 117 / 113 40% 3 31.01.2028 -
Agustín Morales Estudiantes Actif 119 / 122 40% 3 31.01.2028 -
Santiago Cartagena Deportivo Maldonado Actif 107 / 110 40% 10 30.01.2028 -
Gerónimo Tomasetti Temperley Actif 111 / 103 40% 5 30.01.2028 -
David Veliz Güemes Actif 107 / 103 40% 1 30.01.2028 -
Matías Machado Racing Actif 115 / 105 40% 2 28.01.2028 -
Owen Falconis Cerrito Actif 99 / 97 40% 4 28.01.2028 -
Santiago Otegui Plaza Colonia Actif 104 / 106 40% 1 28.01.2028 -
Nazareno Kihm Ferro Carril Oeste Actif 119 / 105 40% 2 25.01.2028 -
Jonathan Baeza La Luz Actif 99 / 100 40% 5 25.01.2028 -
Tobías Leiva Estudiantes Actif 124 / 123 40% 1 25.01.2028 -
Lautaro Núñez Alvarado Actif 93 / 96 40% 6 24.01.2028 -
Franco Benítez Temperley Actif 106 / 121 40% 1 24.01.2028 -
Lautaro Disanto Defensores Unidos Actif 122 / 108 40% 3 23.01.2028 -
Augusto Berrondo Tristán Suárez Actif 119 / 110 40% 5 23.01.2028 -
Juan Salas Patronato Actif 119 / 114 40% 3 23.01.2028 -
Yvo Calleros Madryn Actif 105 / 112 40% 5 21.01.2028 -
Franco Zicarelli Colegiales Actif 98 / 117 40% 2 21.01.2028 -
Marcos Enrique Tristán Suárez Actif 104 / 101 40% 5 19.01.2028 -
Facundo Vigo Atenas Actif 93 / 92 40% 2 19.01.2028 -
Lautaro Montani Defensores Unidos Actif 99 / 108 40% 2 17.01.2028 -
Facundo Castet Colón Actif 108 / 101 40% 2 17.01.2028 -
Kevin Colli Tristán Suárez Actif 104 / 98 40% 1 17.01.2028 -
Thiago López Almagro Actif 101 / 120 40% 3 16.01.2028 -
Siro Rosané Estudiantes Actif 114 / 131 40% 2 16.01.2028 -
Luis Olivera Defensores Unidos Actif 102 / 109 40% 10 15.01.2028 -
Juan Rocca Gimnasia y Tiro Actif 119 / 118 40% 6 15.01.2028 -
Maico Quiroz Güemes Actif 113 / 120 40% 5 13.01.2028 -
Julián Cosi Madryn Actif 112 / 122 40% 2 13.01.2028 -
Román Gamarra San Telmo Actif 102 / 111 40% 3 13.01.2028 -
Enzo Silcan Almagro Actif 111 / 121 40% 8 10.01.2028 -
César Leguizamón River Plate Actif 78 / 91 40% 3 08.01.2028 -
Agustín Benítez Defensores Actif 114 / 114 40% 4 08.01.2028 -
Segundo Pachamé Plaza Colonia Actif 104 / 114 40% 3 08.01.2028 -
Agustín Chopitea Colon Actif 112 / 114 40% 8 03.01.2028 -
Enzo Hoyos Ferro Carril Oeste Actif 108 / 122 40% 1 03.01.2028 -
Lukas König Veracruz Actif 86 / 107 40% 1 02.01.2028 -
Santiago Vera Almirante Brown Actif 108 / 107 40% 1 02.01.2028 -
Ronaldo Royero Depor Actif 97 / 105 40% 5 01.01.2028 -
Valentin Pereyra Patronato Refusé 116 / 104 40% 2 01.01.2028 Plus d'infos
Agustín Villalobos Godoy Cruz Actif 98 / 106 40% 1 31.12.2027 -
Franco Camargo Gimnasia y Esgrima Actif 106 / 121 40% 4 29.12.2027 -
Nicolás Heiz Maipú Actif 98 / 104 40% 1 29.12.2027 -
Brian Calderara Chacarita Juniors Actif 124 / 105 40% 8 28.12.2027 -
Franco Hanashiro Colegiales Actif 104 / 98 40% 5 28.12.2027 -
Ramiro Balbuena Nueva Chicago Actif 105 / 115 40% 2 21.12.2027 -
Erik de los Santos Racing Actif 118 / 108 40% 1 21.12.2027 -
Juan Yangali San Telmo Actif 113 / 116 40% 5 20.12.2027 -
Miguel Ceccotti Güemes Actif 104 / 96 40% 3 18.12.2027 -
Marco Miori Alvarado Actif 113 / 120 40% 3 18.12.2027 -
Miguel Pernía Estudiantes de Caracas Actif 97 / 91 40% 5 16.12.2027 -
Dylan Cabral Arsenal Actif 105 / 115 40% 1 16.12.2027 -
Abel Bustos Racing Actif 121 / 126 40% 7 14.12.2027 -
Martín García Atlanta Actif 105 / 123 40% 4 14.12.2027 -
Luis Segura Deportivo Municipal Actif 102 / 89 40% 1 14.12.2027 -
Gabriel Altamirano Almirante Brown Actif 120 / 104 40% 4 12.12.2027 -
Francisco Funes Los Andes Actif 98 / 97 40% 3 12.12.2027 -
Estanislao Jara Madryn Actif 117 / 105 40% 5 11.12.2027 -
Francisco Maidana Gimnasia y Esgrima Actif 114 / 118 40% 5 11.12.2027 -
Tomás Squie Estudiantes Actif 101 / 103 40% 1 11.12.2027 -
Facundo Ardiles Estudiantes Actif 111 / 99 40% 2 10.12.2027 -
Facundo Villarreal Los Andes Actif 108 / 93 40% 1 10.12.2027 -
Kevin Díaz Estudiantes de Caracas Actif 92 / 85 40% 3 08.12.2027 -
Mateo Ortale Maipú Actif 104 / 103 40% 5 08.12.2027 -
Franco Malagueño Colegiales Actif 108 / 107 40% 5 07.12.2027 -
Matías Valenti Estudiantes Actif 98 / 115 40% 3 04.12.2027 -
Lorenzo Monti Temperley Actif 110 / 109 40% 1 04.12.2027 -
Franco Tejera Oriental Actif 83 / 80 40% 1 01.12.2027 -
Gonzalo Gutiérrez San Martín Actif 101 / 105 40% 1 01.12.2027 -
Hirving Vega Veracruz Actif 108 / 85 40% 2 28.11.2027 -
Milton Cantero Talleres Actif 92 / 95 40% 3 28.11.2027 -
Nicolás Fuica Deportivo Maldonado Actif 102 / 113 40% 5 28.11.2027 -
Juan Motroni San Telmo Actif 119 / 99 40% 2 27.11.2027 -
Agustín Dattola Almirante Brown Actif 124 / 108 40% 3 27.11.2027 -
Fernando Bersano Madryn Actif 119 / 106 40% 2 25.11.2027 -
Kevin Ferreyra Ayacucho Actif 89 / 85 40% 1 23.11.2027 -
José Castellano Mineros de Guayana Actif 80 / 95 40% 5 22.11.2027 -
Agustín da Rocha Cerrito Actif 91 / 97 40% 1 20.11.2027 -
Julián Vila Arsenal Actif 107 / 109 40% 1 20.11.2027 -
Gabriel Díaz Patronato Refusé 113 / 115 40% 7 19.11.2027 Refuser
Cristian Rivas Bogota Actif 101 / 95 40% 2 19.11.2027 -
Facundo Taborda Racing Actif 121 / 106 40% 1 18.11.2027 -
Pedro González Guarani Actif 100 / 102 40% 4 17.11.2027 -
Gustavo Rodriguez Valledupar Refusé 112 / 112 40% 1 14.11.2027 Plus d'infos
Matías Benítez San Miguel Actif 96 / 104 40% 6 12.11.2027 -
Javier Ortíz Barranquilla Actif 88 / 93 40% 1 10.11.2027 -
Tomás González Estudiantes Actif 103 / 122 40% 1 10.11.2027 -
Leonel Cardozo Morón Actif 107 / 105 40% 1 09.11.2027 -
Nicolás Retamar Ferro Carril Oeste Refusé 117 / 120 40% 4 07.11.2027 Refuser
Martín Rodríguez Mitre Actif 116 / 121 40% 4 07.11.2027 -
Juan Pablo Barinaga Patronato Refusé 120 / 123 40% 2 06.11.2027 Plus d'infos
Ian Pérez Defensores Actif 110 / 110 40% 3 05.11.2027 -
Lucas Monzón Alvarado Actif 116 / 119 40% 5 04.11.2027 -
Germán Peralta La Luz Actif 115 / 115 40% 2 30.10.2027 -
Agustín Acosta Atenas Actif 91 / 103 40% 2 28.10.2027 -
Elías Ayala Madryn Actif 100 / 107 40% 1 27.10.2027 -
Tomás Rojas Atlanta Actif 103 / 110 40% 1 26.10.2027 -
Ismael Cortez Gimnasia y Esgrima Actif 124 / 127 40% 2 25.10.2027 -
Matías Sánchez Racing Actif 111 / 111 40% 3 21.10.2027 -
Federico Ulayar Talleres Actif 96 / 110 40% 4 16.10.2027 -
David Paternina La Equidad Actif 96 / 92 40% 3 07.10.2027 -
Mauricio Guzmán Tristán Suárez Actif 116 / 109 40% 2 05.10.2027 -
Diego Mastrángelo Tristán Suárez Actif 108 / 105 40% 1 30.09.2027 -
Keimer Sandoval Deportivo Cali Actif 105 / 98 40% 1 24.09.2027 -
Mario Godoy General Diaz Actif 94 / 91 40% 3 22.09.2027 -
Carlos Murillo Atletico Venezuela Actif 96 / 106 40% 3 17.09.2027 -
Agustín Baldi Tristán Suárez Actif 109 / 122 40% 3 15.09.2027 -
Williams Guzmán Alianza Atletico Actif 104 / 93 40% 1 14.09.2027 -
Elías Calderón Central Norte Actif 107 / 100 40% 2 09.09.2027 -
Franco Bergés Güemes Actif 107 / 102 40% 2 01.09.2027 -
Maximiliano Luayza Koot Tristán Suárez Actif 109 / 123 40% 3 19.08.2027 -
Maicol León Huachipato Actif 90 / 86 40% 1 09.08.2027 -
Mauro Alarcón Defensores Unidos Actif 93 / 91 40% 1 06.08.2027 -
Hervin Goyes Deportivo Pasto Actif 114 / 100 40% 1 01.08.2027 -
Renzo Rabino Juventud Actif 93 / 92 40% 2 20.07.2027 -
Wilmer Bustamante Real Santander Actif 80 / 73 40% 1 16.07.2027 -
Omar Mireles Morelia Actif 108 / 99 40% 1 15.07.2027 -
Nicolás Thaller Colón Actif 108 / 102 40% 1 13.07.2027 -
Nicolás Fernández Maipú Actif 103 / 99 40% 1 12.07.2027 -
Pablo Hofstetter Alvarado Actif 104 / 106 40% 1 09.07.2027 -
Alejandro Molina Tristán Suárez Actif 126 / 106 40% 1 08.07.2027 -
Juan Pablo Córdoba Gimnasia y Esgrima Actif 121 / 107 40% 3 05.07.2027 -
Axel Herrera Santiago Wanderers Actif 98 / 80 40% 1 04.07.2027 -
Samuel Posada Leones Actif 82 / 87 40% 1 29.06.2027 -
Ulises Yegros Ferro Carril Oeste Actif 115 / 107 40% 1 14.06.2027 -
Franco Díaz Temperley Actif 130 / 119 40% 1 14.06.2027 -
Martín González San Telmo Actif 101 / 102 40% 1 11.06.2027 -
Agustín García Rentistas Actif 95 / 92 40% 1 09.06.2027 -
Sebastián Píriz Tacuarembo Actif 86 / 91 40% 1 06.06.2027 -
Cristian Guzmán Universitario Popayan Actif 92 / 81 40% 1 31.05.2027 -
Marcelo Argaña 12 de Octubre Actif 83 / 85 40% 1 26.05.2027 -
Erico Cuello Defensor Sporting Actif 98 / 114 40% 1 24.05.2027 -
Lorenzo Couture Racing Actif 98 / 110 40% 1 21.05.2027 -
Javier Angulo Independiente Medellin Actif 97 / 108 40% 1 04.05.2027 -
Stiven Valencia Zamora Actif 101 / 90 40% 1 03.05.2027 -
Michel Vieira Miramar Misiones Actif 72 / 76 40% 1 01.05.2027 -
Freddy Molina Union Magdalena Actif 87 / 90 40% 1 30.04.2027 -
Yayo Depor Actif 105 / 101 40% 1 28.04.2027 -
Sebastián Cáceres Montevideo City Torque Actif 95 / 91 40% 2 26.04.2027 -
Héctor Ramírez Pumas UNAM Actif 90 / 90 40% 1 24.04.2027 -
Francisco Meza Chiapas Actif 65 / 88 40% 1 23.04.2027 -
Misael Tarón Ferro Carril Oeste Actif 107 / 99 40% 1 23.04.2027 -
Tomás López River Plate Actif 86 / 106 40% 1 20.04.2027 -
Lisandro Montenegro Chacarita Juniors Actif 103 / 125 40% 1 18.04.2027 -
Franco Sivetti Gimnasia y Tiro Actif 116 / 101 40% 1 18.04.2027 -
Juan Camilo Nuñez Deportivo Pasto Actif 93 / 91 40% 1 16.04.2027 -
Felipe Coronel All Boys Actif 118 / 98 40% 1 15.04.2027 -
Daniel Zapata Envigado Actif 104 / 96 40% 1 14.04.2027 -
Héctor Long Real Cartagena Actif 86 / 77 40% 1 11.04.2027 -
Luis Moreno Quero Portuguesa Actif 87 / 87 40% 1 10.04.2027 -
Vittorio Magno Atenas Actif 96 / 99 40% 1 08.04.2027 -
Gonzalo Aguirre Cienciano Actif 104 / 97 40% 1 05.04.2027 -
Luis Quintero Deportivo Pereira Actif 85 / 99 40% 1 29.11.2026 -
Manuel Rodríguez Millonarios Actif 95 / 93 40% 1 28.11.2026 -
Facundo Pérez Juventud Actif 109 / 91 40% 2 27.11.2026 -
Francisco Salerno Defensores Unidos Actif 94 / 112 40% 2 21.11.2026 -
Axel Chávez Sport Huancayo Actif 103 / 93 40% 1 21.11.2026 -
Joaquín Petino Atlanta United FC Actif 89 / 95 40% 2 17.11.2026 -
Oscar Garrido Mitre Actif 103 / 127 40% 2 16.11.2026 -
Joaquín Enrico San Telmo Actif 96 / 94 40% 2 14.11.2026 -
Fabián Palomino Ayacucho Actif 71 / 79 40% 1 14.11.2026 -
José Febres Trujillanos Actif 82 / 95 40% 1 12.11.2026 -
Miguel Silva Carabobo Actif 108 / 102 40% 2 11.11.2026 -
Iñaki Larthirigoyen San Telmo Actif 107 / 112 40% 2 07.11.2026 -
Javier Mena Deportivo Pereira Actif 92 / 106 40% 1 07.11.2026 -
Darluis Paz Estudiantes de Caracas Actif 93 / 98 40% 1 06.11.2026 -
Ronaldo Peña Deportivo Lara Actif 102 / 92 40% 1 05.11.2026 -
Agustín Pérez Deportivo Tachira Actif 110 / 110 40% 1 01.11.2026 -
Luca Lewis Colorado Rapids Actif 113 / 87 40% 1 01.11.2026 -
Gonzalo Flores Almirante Brown Actif 117 / 117 40% 1 30.10.2026 -
Isaí Valladares Zamora Actif 87 / 107 40% 1 29.10.2026 -
Ramón González Almirante Brown Actif 123 / 105 40% 1 28.10.2026 -
Juan Pablo Insúa Barracas Central Actif 88 / 105 40% 2 26.10.2026 -
Gonzalo Larrazábal Deportivo Maldonado Actif 99 / 110 40% 1 26.10.2026 -
Federico Viera Artigas Actif 62 / 84 40% 1 25.10.2026 -
Fernando Abarzúa San Luis Actif 71 / 76 40% 1 25.10.2026 -
Isaac Boehmer Vancouver Whitecaps Actif 92 / 118 40% 1 24.10.2026 -
Julio Da Silva Zulia Actif 88 / 80 40% 1 19.10.2026 -
Esteven Salguero Patriotas Actif 94 / 105 40% 1 18.10.2026 -
Nahuel Pezzini Arsenal Actif 120 / 120 40% 1 16.10.2026 -
Emanuel Sittaro Instituto Actif 93 / 101 40% 1 14.10.2026 -
Gabriel Otero Llaneros Actif 112 / 105 40% 1 12.10.2026 -
Abraham Bahachille Carabobo Actif 111 / 115 40% 2 11.10.2026 -
Martín Campos Ferro Carril Oeste Actif 115 / 121 40% 1 11.10.2026 -
Enzo Acosta Estudiantes Actif 120 / 124 40% 2 10.10.2026 -
Cristian Díaz Zamora Actif 95 / 100 40% 1 08.10.2026 -
Cristian Soteldo Atletico Venezuela Actif 94 / 89 40% 1 08.10.2026 -
Kavier Ortiz Metropolitanos Actif 87 / 84 40% 1 07.10.2026 -
Facundo Waller Huracán Actif 129 / 127 40% 1 07.10.2026 -
Matías Kabalín Ferro Carril Oeste Actif 108 / 123 40% 2 06.10.2026 -
Rodrigo Frutos Olimpia Actif 102 / 92 40% 2 04.10.2026 -
Sergio Sulbarán Zamora Actif 109 / 101 40% 1 04.10.2026 -
Ricardo Bettocchi UTC Actif 97 / 95 40% 1 04.10.2026 -
Lucas Verza Olimpia Actif 105 / 120 40% 1 03.10.2026 -
Javier Bravo Mineros de Guayana Actif 80 / 83 40% 1 03.10.2026 -
Eduardo Fereira Caracas Actif 104 / 116 40% 2 29.09.2026 -
Bruno Hernández Cerro Largo Actif 85 / 102 40% 1 29.09.2026 -
Gali Balanta Deportes Tolima Actif 98 / 88 40% 1 29.09.2026 -
Alejandro Santander Cobresal Actif 96 / 96 40% 1 28.09.2026 -
Jorge Espejo Universidad de Concepcion Actif 114 / 112 40% 1 27.09.2026 -
César Munder Palestino Actif 121 / 110 40% 1 27.09.2026 -
Franco Vedoya Central Norte Actif 109 / 98 40% 1 24.09.2026 -
Stefano Fernández Alianza Atletico Actif 95 / 92 40% 1 23.09.2026 -
Jeferson Nolasco Cesar Vallejo Actif 85 / 104 40% 1 23.09.2026 -
Lucas Soto Colo-Colo Actif 97 / 102 40% 1 20.09.2026 -
Diego Fernández Guarani Actif 116 / 120 40% 1 19.09.2026 -
Daniel Monardes San Luis Actif 95 / 89 40% 1 19.09.2026 -
Pablo López Tacuarembo Actif 104 / 103 40% 1 18.09.2026 -
Rafael Haller Liverpool Montevideo Actif 113 / 102 40% 1 18.09.2026 -
Duván Mósquera Aguilas Doradas Actif 97 / 108 40% 1 17.09.2026 -
Mateo Puerta Deportivo Cali Actif 121 / 118 40% 1 16.09.2026 -
Tilman Palacios America de Cali Actif 99 / 116 40% 1 15.09.2026 -
Jáder Quiñónes Once Caldas Actif 113 / 121 40% 1 15.09.2026 -
Jorge Rodríguez Atlas Actif 124 / 115 40% 1 13.09.2026 -
Mathías Rodríguez Cerrito Actif 98 / 110 40% 1 11.09.2026 -
Carlos Adrián Sánchez Pachuca Actif 110 / 120 40% 1 11.09.2026 -
Jesús Rivas Junior Actif 116 / 122 40% 2 10.09.2026 -
Luis Corredor Estudiantes de Caracas Actif 90 / 95 40% 1 10.09.2026 -
Nicolás Fernandez Universidad de Chile Actif 110 / 107 40% 1 10.09.2026 -
Santiago Cubides Jaguares Actif 101 / 93 40% 1 09.09.2026 -
David Moreno Atletico Venezuela Actif 94 / 91 40% 1 07.09.2026 -
Marlos Moreno Atletico Nacional Actif 112 / 117 40% 1 07.09.2026 -
Stiven Vega Millonarios Actif 117 / 127 40% 1 04.09.2026 -
Ricardo Echeverría Santos Laguna Actif 106 / 105 40% 1 04.09.2026 -
Ángel Espínola Sportivo Luqueno Actif 90 / 88 40% 1 04.09.2026 -
Humberto Acevedo Union Magdalena Actif 83 / 88 40% 1 02.09.2026 -
Alberto Martínez Guarani Actif 95 / 88 40% 1 01.09.2026 -
Carlos Baltazar Puebla Actif 110 / 106 40% 1 31.08.2026 -
Aldair Gutiérrez Atletico Bucaramanga Actif 105 / 108 40% 1 31.08.2026 -
Leandro Umpiérrez Penarol Actif 99 / 119 40% 2 29.08.2026 -
Hebert Vergara Liverpool Montevideo Actif 101 / 98 40% 1 29.08.2026 -
Juan Diego Jaramillo Depor Actif 88 / 106 40% 1 27.08.2026 -
Bastián Yáñez O'Higgins Actif 106 / 111 40% 1 24.08.2026 -
Álex Perdomo Defensor Sporting Actif 107 / 94 40% 1 24.08.2026 -
Franco Martínez Artigas Actif 104 / 98 40% 1 23.08.2026 -
Tomás Ángel America de Cali Actif 97 / 119 40% 1 23.08.2026 -
Marcus Vinicius Deportivo Pereira Actif 108 / 102 40% 2 22.08.2026 -
Facundo Muñoa Boston River Actif 95 / 120 40% 1 21.08.2026 -
Diego Valencia Universidad Catolica Actif 101 / 115 40% 1 20.08.2026 -
Juan Camilo Castillo Fortaleza CEIF Actif 107 / 97 40% 1 18.08.2026 -
Léider Berrío Independiente Medellin Actif 108 / 105 40% 1 18.08.2026 -
Ángel Maciel Tacuarembo Actif 91 / 110 40% 1 18.08.2026 -
Yefferson Colmenárez Zulia Actif 98 / 97 40% 1 16.08.2026 -
George Ayine Metropolitanos Actif 88 / 100 40% 1 16.08.2026 -
Dairon Valencia Atletico Bucaramanga Actif 99 / 111 40% 1 14.08.2026 -
Jhonier Salas Fortaleza CEIF Actif 103 / 97 40% 1 14.08.2026 -
Maximiliano Añasco Guarani Actif 99 / 104 40% 1 11.08.2026 -
Neyder Moreno Atletico Nacional Actif 120 / 111 40% 1 10.08.2026 -
Roameth Romaña Llaneros Actif 111 / 104 40% 1 10.08.2026 -
Bruno Antúnez Boston River Actif 110 / 122 40% 1 10.08.2026 -
Aldo Montes Tigres Actif 92 / 95 40% 1 08.08.2026 -
Carlos Calzadilla Deportivo Tachira Actif 93 / 94 40% 1 08.08.2026 -
Álvaro Meléndez Real Cartagena Actif 106 / 97 40% 1 07.08.2026 -
Valentín Amoroso Plaza Colonia Actif 99 / 90 40% 1 04.08.2026 -
Santiago Costa Albion Actif 115 / 114 40% 1 03.08.2026 -
Agustín Paz Progreso Actif 116 / 118 40% 1 01.08.2026 -
Lucas Arzamendia Atenas Actif 86 / 89 40% 1 01.08.2026 -